KSRQKRSW

Guest
Details From KSRQ - Sarasota Bradenton Intl
To KRSW - Southwest Florida Intl
Flight Number -
Tags generated
Created
Modified
Stats Distance 67 nm / 124 km
Max Altitude 4,300 ft / 1,311 m
Waypoints 3
Social Downloads 0
Likes 0
Share VATSIM

Download

Looking for another format? Having issues loading an existing format? Contact us
Advertisement - Login to hide

Notes

Basic altitude profile: - Ascent Rate: 2500ft/min - Ascent Speed: 250kts - Cruise Altitude: 35000ft - Cruise Speed: 420kts - Descent Rate: 1500ft/min - Descent Speed: 250kts Options: - Use NATs: no - Use PACOTS: no - Use low airways: yes - Use high airways: no

Route

KSRQ ERRIN KRSW

ID Type Via Altitude Latitude Longitude Leg Dist Tot Dist Heading (true) Name
O KSRQ APT - 0 ft / 0 m 27.39544˚ -82.55404˚ - 0 nm - Sarasota Bradenton Intl
ERRIN FIX - 4,300 ft / 1,311 m 26.80795˚ -81.98233˚ 46 nm 46 nm 139° / 139° -
O KRSW APT - 0 ft / 0 m 26.53616˚ -81.75515˚ 20 nm 67 nm 143° / 143° Southwest Florida Intl

Altitude Profile

Advertisement - Login to hide

KSRQ

Details ICAO KSRQ (SRQ)
Name Sarasota Bradenton Intl
Region United States
Timezone America/New_York (UTC-4.0)
Stats Elevation 31 ft / 9 m (AMSL)
Location 27.395443° -82.554035°
Runways 2
Magnetic Variation 5.505° W

METAR

Not found

TAF

KSRQ 272335Z 2800/2824 17012G23KT P6SM VCSH SCT020 BKN070 OVC200 FM280300 17018G25KT P6SM VCSH BKN020 BKN030 FM280900 15010KT P6SM BKN020 BKN040 FM281300 16011G20KT P6SM VCSH BKN020 OVC040 FM281700 18013G20KT P6SM VCTS SCT025CB BKN050

Decode

Departure Runways

ID Width Length Bearing (true) Bearing (mag) Surface Threshold Offset Overrun Length
04 150 ft / 46 m 5,019 ft / 1,530 m 37.96° 43.47° Asphalt 0 ft / 0 m 0 ft / 0 m
14 150 ft / 46 m 9,510 ft / 2,899 m 134.53° 140.04° Asphalt 1,350 ft / 411 m 0 ft / 0 m
22 150 ft / 46 m 5,019 ft / 1,530 m 217.96° 223.47° Asphalt 0 ft / 0 m 0 ft / 0 m
32 150 ft / 46 m 9,510 ft / 2,899 m 314.54° 320.05° Asphalt 1,147 ft / 350 m 0 ft / 0 m

KRSW

Details ICAO KRSW (RSW)
Name Southwest Florida Intl
Region United States
Timezone America/New_York (UTC-4.0)
Stats Elevation 30 ft / 9 m (AMSL)
Location 26.536162° -81.755152°
Runways 1
Magnetic Variation 5.886° W

METAR

Not found

TAF

KRSW 272335Z 2800/2824 18015KT P6SM VCSH SCT020 BKN040 OVC200 FM280600 16010KT P6SM BKN020 BKN050 FM281500 18013G21KT P6SM VCSH SCT020 BKN050 FM281800 22015G23KT P6SM VCTS FEW025CB BKN100

Decode

Destination Runways

ID Width Length Bearing (true) Bearing (mag) Surface Threshold Offset Overrun Length
06 150 ft / 46 m 12,004 ft / 3,659 m 53.96° 59.85° Asphalt 0 ft / 0 m 0 ft / 0 m
24 150 ft / 46 m 12,004 ft / 3,659 m 233.97° 239.86° Asphalt 0 ft / 0 m 0 ft / 0 m

Approach Navaids

Runway Type Ident Frequency Range Bearing (true) Bearing (mag) Slope Elevation
06 Localiser IRSW 111.50 MHz 18 nm / 33 km 53.97° 59.86° - 28 ft / 9 m (AMSL)
06 Glidescope IRSW 111.50 MHz 10 nm / 19 km 53.96° 59.85° 3.00° 27 ft / 8 m (AMSL)

Popular Alternatives